sensor_id;sensor_type;location;lat;lon;timestamp;P1;durP1;ratioP1;P2;durP2;ratioP2
75246;SDS011;63844;50.042;19.224;2023-08-06T00:00:09;5.30;;;3.60;;
75246;SDS011;63844;50.042;19.224;2023-08-06T00:01:44;4.20;;;3.10;;
75246;SDS011;63844;50.042;19.224;2023-08-06T00:03:19;4.10;;;3.30;;
75246;SDS011;63844;50.042;19.224;2023-08-06T00:04:55;10.00;;;4.00;;
75246;SDS011;63844;50.042;19.224;2023-08-06T00:06:30;3.50;;;3.00;;
75246;SDS011;63844;50.042;19.224;2023-08-06T00:08:05;5.50;;;3.60;;
75246;SDS011;63844;50.042;19.224;2023-08-06T00:09:40;4.70;;;3.60;;
75246;SDS011;63844;50.042;19.224;2023-08-06T00:11:16;6.70;;;3.80;;
75246;SDS011;63844;50.042;19.224;2023-08-06T00:12:51;4.40;;;4.00;;
75246;SDS011;63844;50.042;19.224;2023-08-06T00:14:26;4.40;;;3.50;;
75246;SDS011;63844;50.042;19.224;2023-08-06T00:16:09;6.40;;;3.80;;
75246;SDS011;63844;50.042;19.224;2023-08-06T00:17:45;5.00;;;3.60;;
75246;SDS011;63844;50.042;19.224;2023-08-06T00:19:20;7.30;;;3.70;;
75246;SDS011;63844;50.042;19.224;2023-08-06T00:20:56;5.70;;;3.90;;
75246;SDS011;63844;50.042;19.224;2023-08-06T00:22:37;5.30;;;4.30;;
75246;SDS011;63844;50.042;19.224;2023-08-06T00:24:13;6.40;;;4.50;;
75246;SDS011;63844;50.042;19.224;2023-08-06T00:27:24;6.40;;;3.80;;
75246;SDS011;63844;50.042;19.224;2023-08-06T00:28:59;8.70;;;4.30;;
75246;SDS011;63844;50.042;19.224;2023-08-06T00:30:35;6.30;;;4.70;;
75246;SDS011;63844;50.042;19.224;2023-08-06T00:32:10;6.50;;;4.00;;
75246;SDS011;63844;50.042;19.224;2023-08-06T00:33:46;4.60;;;3.70;;
75246;SDS011;63844;50.042;19.224;2023-08-06T00:35:21;5.60;;;3.90;;
75246;SDS011;63844;50.042;19.224;2023-08-06T00:36:56;6.40;;;3.70;;
75246;SDS011;63844;50.042;19.224;2023-08-06T00:38:32;5.10;;;3.90;;
75246;SDS011;63844;50.042;19.224;2023-08-06T00:40:07;7.40;;;4.20;;
75246;SDS011;63844;50.042;19.224;2023-08-06T00:41:43;5.90;;;4.20;;
75246;SDS011;63844;50.042;19.224;2023-08-06T00:43:18;5.70;;;4.50;;
75246;SDS011;63844;50.042;19.224;2023-08-06T00:44:54;5.40;;;3.60;;
75246;SDS011;63844;50.042;19.224;2023-08-06T00:46:29;5.80;;;4.30;;
75246;SDS011;63844;50.042;19.224;2023-08-06T00:48:06;6.00;;;3.90;;
75246;SDS011;63844;50.042;19.224;2023-08-06T00:49:42;6.10;;;4.10;;
75246;SDS011;63844;50.042;19.224;2023-08-06T00:52:54;4.90;;;3.90;;
75246;SDS011;63844;50.042;19.224;2023-08-06T00:54:29;5.20;;;3.90;;
75246;SDS011;63844;50.042;19.224;2023-08-06T00:56:06;5.70;;;4.40;;
75246;SDS011;63844;50.042;19.224;2023-08-06T00:57:44;4.80;;;4.10;;
75246;SDS011;63844;50.042;19.224;2023-08-06T00:59:19;5.30;;;4.00;;
75246;SDS011;63844;50.042;19.224;2023-08-06T01:00:55;6.50;;;4.20;;
75246;SDS011;63844;50.042;19.224;2023-08-06T01:02:30;6.30;;;4.10;;
75246;SDS011;63844;50.042;19.224;2023-08-06T01:04:05;3.80;;;3.40;;
75246;SDS011;63844;50.042;19.224;2023-08-06T01:05:42;4.90;;;3.50;;
75246;SDS011;63844;50.042;19.224;2023-08-06T01:12:18;4.60;;;3.80;;
75246;SDS011;63844;50.042;19.224;2023-08-06T01:16:03;4.50;;;4.10;;
75246;SDS011;63844;50.042;19.224;2023-08-06T01:17:40;4.30;;;3.60;;
75246;SDS011;63844;50.042;19.224;2023-08-06T01:19:17;4.20;;;3.70;;
75246;SDS011;63844;50.042;19.224;2023-08-06T01:20:53;5.00;;;3.90;;
75246;SDS011;63844;50.042;19.224;2023-08-06T01:22:29;4.90;;;3.80;;
75246;SDS011;63844;50.042;19.224;2023-08-06T01:24:04;4.50;;;3.70;;
75246;SDS011;63844;50.042;19.224;2023-08-06T01:25:50;4.10;;;3.70;;
75246;SDS011;63844;50.042;19.224;2023-08-06T01:27:48;4.30;;;3.70;;
75246;SDS011;63844;50.042;19.224;2023-08-06T01:31:27;4.20;;;3.90;;
75246;SDS011;63844;50.042;19.224;2023-08-06T01:33:06;6.40;;;3.60;;
75246;SDS011;63844;50.042;19.224;2023-08-06T01:34:45;4.60;;;3.30;;
75246;SDS011;63844;50.042;19.224;2023-08-06T01:36:23;4.00;;;3.60;;
75246;SDS011;63844;50.042;19.224;2023-08-06T01:38:02;4.40;;;3.80;;
75246;SDS011;63844;50.042;19.224;2023-08-06T01:39:39;3.90;;;3.50;;
75246;SDS011;63844;50.042;19.224;2023-08-06T01:41:17;4.10;;;3.70;;
75246;SDS011;63844;50.042;19.224;2023-08-06T01:42:55;4.30;;;3.40;;
75246;SDS011;63844;50.042;19.224;2023-08-06T01:44:30;5.60;;;3.70;;
75246;SDS011;63844;50.042;19.224;2023-08-06T01:46:05;4.40;;;3.90;;
75246;SDS011;63844;50.042;19.224;2023-08-06T01:47:40;3.80;;;3.40;;
75246;SDS011;63844;50.042;19.224;2023-08-06T01:49:16;3.70;;;3.30;;
75246;SDS011;63844;50.042;19.224;2023-08-06T01:50:51;3.60;;;3.20;;
75246;SDS011;63844;50.042;19.224;2023-08-06T01:52:27;5.20;;;3.70;;
75246;SDS011;63844;50.042;19.224;2023-08-06T01:54:02;4.00;;;3.30;;
75246;SDS011;63844;50.042;19.224;2023-08-06T01:57:13;4.50;;;3.50;;
75246;SDS011;63844;50.042;19.224;2023-08-06T01:58:49;3.40;;;3.10;;
75246;SDS011;63844;50.042;19.224;2023-08-06T02:00:24;3.90;;;3.20;;
75246;SDS011;63844;50.042;19.224;2023-08-06T02:01:59;3.30;;;2.90;;
75246;SDS011;63844;50.042;19.224;2023-08-06T02:03:38;3.90;;;3.00;;
75246;SDS011;63844;50.042;19.224;2023-08-06T02:05:13;4.50;;;4.10;;
75246;SDS011;63844;50.042;19.224;2023-08-06T02:06:49;4.60;;;4.10;;
75246;SDS011;63844;50.042;19.224;2023-08-06T02:08:24;3.10;;;2.80;;
75246;SDS011;63844;50.042;19.224;2023-08-06T02:09:59;3.60;;;3.10;;
75246;SDS011;63844;50.042;19.224;2023-08-06T02:11:35;3.50;;;2.90;;
75246;SDS011;63844;50.042;19.224;2023-08-06T02:13:10;3.20;;;2.90;;
75246;SDS011;63844;50.042;19.224;2023-08-06T02:14:45;3.70;;;3.40;;
75246;SDS011;63844;50.042;19.224;2023-08-06T02:16:21;3.70;;;3.30;;
75246;SDS011;63844;50.042;19.224;2023-08-06T02:17:56;4.40;;;4.00;;
75246;SDS011;63844;50.042;19.224;2023-08-06T02:19:32;3.80;;;3.30;;
75246;SDS011;63844;50.042;19.224;2023-08-06T02:21:07;3.20;;;2.90;;
75246;SDS011;63844;50.042;19.224;2023-08-06T02:22:43;4.20;;;3.30;;
75246;SDS011;63844;50.042;19.224;2023-08-06T02:26:11;3.60;;;2.80;;
75246;SDS011;63844;50.042;19.224;2023-08-06T02:27:47;3.30;;;2.90;;
75246;SDS011;63844;50.042;19.224;2023-08-06T02:29:22;3.60;;;2.80;;
75246;SDS011;63844;50.042;19.224;2023-08-06T02:30:57;3.30;;;3.00;;
75246;SDS011;63844;50.042;19.224;2023-08-06T02:34:10;3.30;;;2.60;;
75246;SDS011;63844;50.042;19.224;2023-08-06T02:35:46;4.10;;;3.30;;
75246;SDS011;63844;50.042;19.224;2023-08-06T02:37:21;2.90;;;2.70;;
75246;SDS011;63844;50.042;19.224;2023-08-06T02:38:57;3.90;;;3.00;;
75246;SDS011;63844;50.042;19.224;2023-08-06T02:40:32;3.50;;;3.20;;
75246;SDS011;63844;50.042;19.224;2023-08-06T02:42:07;3.30;;;3.00;;
75246;SDS011;63844;50.042;19.224;2023-08-06T02:43:43;3.50;;;2.70;;
75246;SDS011;63844;50.042;19.224;2023-08-06T02:45:18;3.30;;;2.80;;
75246;SDS011;63844;50.042;19.224;2023-08-06T02:46:53;3.20;;;2.80;;
75246;SDS011;63844;50.042;19.224;2023-08-06T02:48:29;3.40;;;3.10;;
75246;SDS011;63844;50.042;19.224;2023-08-06T02:50:04;3.10;;;2.60;;
75246;SDS011;63844;50.042;19.224;2023-08-06T02:51:40;3.10;;;2.80;;
75246;SDS011;63844;50.042;19.224;2023-08-06T02:53:16;3.40;;;3.10;;
75246;SDS011;63844;50.042;19.224;2023-08-06T02:54:51;4.20;;;3.80;;
75246;SDS011;63844;50.042;19.224;2023-08-06T02:56:27;3.60;;;3.30;;
75246;SDS011;63844;50.042;19.224;2023-08-06T02:58:02;3.50;;;3.10;;
75246;SDS011;63844;50.042;19.224;2023-08-06T02:59:37;3.10;;;2.80;;
75246;SDS011;63844;50.042;19.224;2023-08-06T03:01:13;2.90;;;2.60;;
75246;SDS011;63844;50.042;19.224;2023-08-06T03:02:49;3.20;;;2.90;;
75246;SDS011;63844;50.042;19.224;2023-08-06T03:04:24;3.20;;;2.90;;
75246;SDS011;63844;50.042;19.224;2023-08-06T03:06:00;2.80;;;2.60;;
75246;SDS011;63844;50.042;19.224;2023-08-06T03:07:36;2.90;;;2.60;;
75246;SDS011;63844;50.042;19.224;2023-08-06T03:09:12;3.60;;;3.20;;
75246;SDS011;63844;50.042;19.224;2023-08-06T03:10:48;2.80;;;2.40;;
75246;SDS011;63844;50.042;19.224;2023-08-06T03:12:24;4.20;;;3.50;;
75246;SDS011;63844;50.042;19.224;2023-08-06T03:13:59;3.10;;;2.80;;
75246;SDS011;63844;50.042;19.224;2023-08-06T03:15:35;3.30;;;3.00;;
75246;SDS011;63844;50.042;19.224;2023-08-06T03:17:10;3.80;;;2.90;;
75246;SDS011;63844;50.042;19.224;2023-08-06T03:18:46;3.80;;;3.30;;
75246;SDS011;63844;50.042;19.224;2023-08-06T03:20:21;3.40;;;3.10;;
75246;SDS011;63844;50.042;19.224;2023-08-06T03:21:57;2.80;;;2.50;;
75246;SDS011;63844;50.042;19.224;2023-08-06T03:23:32;4.60;;;3.50;;
75246;SDS011;63844;50.042;19.224;2023-08-06T03:26:43;3.70;;;3.30;;
75246;SDS011;63844;50.042;19.224;2023-08-06T03:28:18;3.90;;;2.70;;
75246;SDS011;63844;50.042;19.224;2023-08-06T03:29:54;4.00;;;3.60;;
75246;SDS011;63844;50.042;19.224;2023-08-06T03:31:29;3.20;;;2.90;;
75246;SDS011;63844;50.042;19.224;2023-08-06T03:33:04;2.80;;;2.60;;
75246;SDS011;63844;50.042;19.224;2023-08-06T03:34:40;2.60;;;2.40;;
75246;SDS011;63844;50.042;19.224;2023-08-06T03:36:15;3.60;;;2.50;;
75246;SDS011;63844;50.042;19.224;2023-08-06T03:37:50;2.80;;;2.30;;
75246;SDS011;63844;50.042;19.224;2023-08-06T03:39:26;3.70;;;3.00;;
75246;SDS011;63844;50.042;19.224;2023-08-06T03:41:01;3.50;;;2.90;;
75246;SDS011;63844;50.042;19.224;2023-08-06T03:42:37;4.20;;;3.00;;
75246;SDS011;63844;50.042;19.224;2023-08-06T03:44:12;3.20;;;2.60;;
75246;SDS011;63844;50.042;19.224;2023-08-06T03:45:47;3.70;;;3.10;;
75246;SDS011;63844;50.042;19.224;2023-08-06T03:47:23;3.70;;;3.00;;
75246;SDS011;63844;50.042;19.224;2023-08-06T03:48:58;4.10;;;3.40;;
75246;SDS011;63844;50.042;19.224;2023-08-06T03:50:33;3.40;;;3.10;;
75246;SDS011;63844;50.042;19.224;2023-08-06T03:52:09;3.50;;;3.20;;
75246;SDS011;63844;50.042;19.224;2023-08-06T03:53:44;3.40;;;3.00;;
75246;SDS011;63844;50.042;19.224;2023-08-06T03:55:19;3.30;;;3.00;;
75246;SDS011;63844;50.042;19.224;2023-08-06T03:56:55;3.70;;;3.30;;
75246;SDS011;63844;50.042;19.224;2023-08-06T03:58:31;3.80;;;3.40;;
75246;SDS011;63844;50.042;19.224;2023-08-06T04:00:06;4.10;;;3.30;;
75246;SDS011;63844;50.042;19.224;2023-08-06T04:01:42;5.10;;;3.70;;
75246;SDS011;63844;50.042;19.224;2023-08-06T04:03:18;3.50;;;3.20;;
75246;SDS011;63844;50.042;19.224;2023-08-06T04:04:53;6.50;;;4.30;;
75246;SDS011;63844;50.042;19.224;2023-08-06T04:06:28;4.70;;;4.30;;
75246;SDS011;63844;50.042;19.224;2023-08-06T04:08:06;4.60;;;3.40;;
75246;SDS011;63844;50.042;19.224;2023-08-06T04:09:54;5.40;;;4.20;;
75246;SDS011;63844;50.042;19.224;2023-08-06T04:11:32;5.30;;;3.90;;
75246;SDS011;63844;50.042;19.224;2023-08-06T04:13:07;4.40;;;3.60;;
75246;SDS011;63844;50.042;19.224;2023-08-06T04:14:43;6.00;;;4.70;;
75246;SDS011;63844;50.042;19.224;2023-08-06T04:16:18;5.30;;;4.40;;
75246;SDS011;63844;50.042;19.224;2023-08-06T04:17:53;5.10;;;4.10;;
75246;SDS011;63844;50.042;19.224;2023-08-06T04:19:30;5.60;;;4.80;;
75246;SDS011;63844;50.042;19.224;2023-08-06T04:21:06;6.60;;;5.20;;
75246;SDS011;63844;50.042;19.224;2023-08-06T04:22:41;7.40;;;5.20;;
75246;SDS011;63844;50.042;19.224;2023-08-06T04:24:16;6.30;;;4.70;;
75246;SDS011;63844;50.042;19.224;2023-08-06T04:25:52;7.20;;;5.10;;
75246;SDS011;63844;50.042;19.224;2023-08-06T04:27:27;6.60;;;5.40;;
75246;SDS011;63844;50.042;19.224;2023-08-06T04:29:02;7.50;;;5.30;;
75246;SDS011;63844;50.042;19.224;2023-08-06T04:30:38;6.10;;;5.00;;
75246;SDS011;63844;50.042;19.224;2023-08-06T04:32:15;6.40;;;5.00;;
75246;SDS011;63844;50.042;19.224;2023-08-06T04:33:51;7.20;;;5.00;;
75246;SDS011;63844;50.042;19.224;2023-08-06T04:35:26;6.50;;;5.80;;
75246;SDS011;63844;50.042;19.224;2023-08-06T04:37:02;6.50;;;5.40;;
75246;SDS011;63844;50.042;19.224;2023-08-06T04:38:38;6.70;;;4.90;;
75246;SDS011;63844;50.042;19.224;2023-08-06T04:40:16;5.80;;;4.70;;
75246;SDS011;63844;50.042;19.224;2023-08-06T04:41:51;6.30;;;5.40;;
75246;SDS011;63844;50.042;19.224;2023-08-06T04:43:27;7.70;;;5.60;;
75246;SDS011;63844;50.042;19.224;2023-08-06T04:45:02;6.00;;;5.10;;
75246;SDS011;63844;50.042;19.224;2023-08-06T04:46:38;6.90;;;5.70;;
75246;SDS011;63844;50.042;19.224;2023-08-06T04:48:13;6.30;;;5.50;;
75246;SDS011;63844;50.042;19.224;2023-08-06T04:49:49;9.30;;;6.00;;
75246;SDS011;63844;50.042;19.224;2023-08-06T04:51:25;7.70;;;5.30;;
75246;SDS011;63844;50.042;19.224;2023-08-06T04:53:00;7.00;;;5.50;;
75246;SDS011;63844;50.042;19.224;2023-08-06T04:54:35;7.50;;;5.90;;
75246;SDS011;63844;50.042;19.224;2023-08-06T04:56:11;7.00;;;5.00;;
75246;SDS011;63844;50.042;19.224;2023-08-06T04:57:46;7.50;;;6.00;;
75246;SDS011;63844;50.042;19.224;2023-08-06T05:00:57;8.50;;;5.80;;
75246;SDS011;63844;50.042;19.224;2023-08-06T05:02:32;7.10;;;6.20;;
75246;SDS011;63844;50.042;19.224;2023-08-06T05:04:09;7.90;;;5.80;;
75246;SDS011;63844;50.042;19.224;2023-08-06T05:05:45;6.10;;;5.30;;
75246;SDS011;63844;50.042;19.224;2023-08-06T05:07:21;8.90;;;6.20;;
75246;SDS011;63844;50.042;19.224;2023-08-06T05:08:57;7.20;;;5.90;;
75246;SDS011;63844;50.042;19.224;2023-08-06T05:10:32;7.70;;;6.50;;
75246;SDS011;63844;50.042;19.224;2023-08-06T05:12:08;7.40;;;6.20;;
75246;SDS011;63844;50.042;19.224;2023-08-06T05:13:44;7.70;;;6.90;;
75246;SDS011;63844;50.042;19.224;2023-08-06T05:15:19;6.60;;;5.70;;
75246;SDS011;63844;50.042;19.224;2023-08-06T05:16:55;7.50;;;6.50;;
75246;SDS011;63844;50.042;19.224;2023-08-06T05:18:30;7.00;;;6.00;;
75246;SDS011;63844;50.042;19.224;2023-08-06T05:20:06;9.70;;;6.50;;
75246;SDS011;63844;50.042;19.224;2023-08-06T05:21:42;11.50;;;6.50;;
75246;SDS011;63844;50.042;19.224;2023-08-06T05:23:17;7.60;;;6.70;;
75246;SDS011;63844;50.042;19.224;2023-08-06T05:24:52;9.10;;;5.70;;
75246;SDS011;63844;50.042;19.224;2023-08-06T05:26:28;9.00;;;6.20;;
75246;SDS011;63844;50.042;19.224;2023-08-06T05:28:03;8.90;;;5.50;;
75246;SDS011;63844;50.042;19.224;2023-08-06T05:29:42;8.10;;;5.90;;
75246;SDS011;63844;50.042;19.224;2023-08-06T05:31:18;6.70;;;5.80;;
75246;SDS011;63844;50.042;19.224;2023-08-06T05:32:56;6.20;;;5.50;;
75246;SDS011;63844;50.042;19.224;2023-08-06T05:34:31;7.70;;;6.20;;
75246;SDS011;63844;50.042;19.224;2023-08-06T05:36:07;9.80;;;6.70;;
75246;SDS011;63844;50.042;19.224;2023-08-06T05:37:42;9.00;;;6.60;;
75246;SDS011;63844;50.042;19.224;2023-08-06T05:39:17;6.60;;;5.80;;
75246;SDS011;63844;50.042;19.224;2023-08-06T05:40:53;7.60;;;6.80;;
75246;SDS011;63844;50.042;19.224;2023-08-06T05:42:28;7.50;;;6.70;;
75246;SDS011;63844;50.042;19.224;2023-08-06T05:44:03;6.80;;;6.10;;
75246;SDS011;63844;50.042;19.224;2023-08-06T05:45:43;7.00;;;6.00;;
75246;SDS011;63844;50.042;19.224;2023-08-06T05:47:20;7.60;;;5.90;;
75246;SDS011;63844;50.042;19.224;2023-08-06T05:48:55;7.90;;;6.70;;
75246;SDS011;63844;50.042;19.224;2023-08-06T05:50:31;7.70;;;6.10;;
75246;SDS011;63844;50.042;19.224;2023-08-06T05:52:06;7.10;;;6.00;;
75246;SDS011;63844;50.042;19.224;2023-08-06T05:53:43;7.40;;;6.60;;
75246;SDS011;63844;50.042;19.224;2023-08-06T05:55:19;9.90;;;7.30;;
75246;SDS011;63844;50.042;19.224;2023-08-06T05:56:55;7.00;;;6.20;;
75246;SDS011;63844;50.042;19.224;2023-08-06T05:58:30;7.00;;;6.30;;
75246;SDS011;63844;50.042;19.224;2023-08-06T06:00:06;7.50;;;6.60;;
75246;SDS011;63844;50.042;19.224;2023-08-06T06:01:43;7.10;;;6.40;;
75246;SDS011;63844;50.042;19.224;2023-08-06T06:03:18;7.40;;;6.70;;
75246;SDS011;63844;50.042;19.224;2023-08-06T06:04:53;7.90;;;6.20;;
75246;SDS011;63844;50.042;19.224;2023-08-06T06:06:29;8.30;;;6.80;;
75246;SDS011;63844;50.042;19.224;2023-08-06T06:08:04;7.50;;;5.90;;
75246;SDS011;63844;50.042;19.224;2023-08-06T06:09:40;8.20;;;6.90;;
75246;SDS011;63844;50.042;19.224;2023-08-06T06:11:15;7.50;;;6.70;;
75246;SDS011;63844;50.042;19.224;2023-08-06T06:12:51;7.70;;;6.10;;
75246;SDS011;63844;50.042;19.224;2023-08-06T06:14:26;7.50;;;6.60;;
75246;SDS011;63844;50.042;19.224;2023-08-06T06:16:01;7.90;;;6.40;;
75246;SDS011;63844;50.042;19.224;2023-08-06T06:17:37;8.40;;;6.90;;
75246;SDS011;63844;50.042;19.224;2023-08-06T06:19:12;7.10;;;6.40;;
75246;SDS011;63844;50.042;19.224;2023-08-06T06:20:48;7.10;;;5.90;;
75246;SDS011;63844;50.042;19.224;2023-08-06T06:22:24;7.20;;;6.40;;
75246;SDS011;63844;50.042;19.224;2023-08-06T06:23:59;6.10;;;5.50;;
75246;SDS011;63844;50.042;19.224;2023-08-06T06:25:34;6.10;;;5.50;;
75246;SDS011;63844;50.042;19.224;2023-08-06T06:27:10;7.70;;;6.00;;
75246;SDS011;63844;50.042;19.224;2023-08-06T06:28:45;6.70;;;6.10;;
75246;SDS011;63844;50.042;19.224;2023-08-06T06:30:20;9.10;;;6.30;;
75246;SDS011;63844;50.042;19.224;2023-08-06T06:31:56;6.70;;;6.10;;
75246;SDS011;63844;50.042;19.224;2023-08-06T06:33:32;6.50;;;5.80;;
75246;SDS011;63844;50.042;19.224;2023-08-06T06:35:07;9.20;;;6.70;;
75246;SDS011;63844;50.042;19.224;2023-08-06T06:36:44;6.50;;;5.90;;
75246;SDS011;63844;50.042;19.224;2023-08-06T06:38:20;7.10;;;6.40;;
75246;SDS011;63844;50.042;19.224;2023-08-06T06:39:55;7.90;;;7.00;;
75246;SDS011;63844;50.042;19.224;2023-08-06T06:41:30;8.20;;;6.20;;
75246;SDS011;63844;50.042;19.224;2023-08-06T06:43:07;6.40;;;5.80;;
75246;SDS011;63844;50.042;19.224;2023-08-06T06:44:43;7.30;;;6.40;;
75246;SDS011;63844;50.042;19.224;2023-08-06T06:46:18;6.70;;;6.00;;
75246;SDS011;63844;50.042;19.224;2023-08-06T06:47:53;6.90;;;6.20;;
75246;SDS011;63844;50.042;19.224;2023-08-06T06:49:29;7.00;;;6.30;;
75246;SDS011;63844;50.042;19.224;2023-08-06T06:51:04;7.40;;;6.40;;
75246;SDS011;63844;50.042;19.224;2023-08-06T06:52:40;7.00;;;6.40;;
75246;SDS011;63844;50.042;19.224;2023-08-06T06:54:16;6.40;;;5.50;;
75246;SDS011;63844;50.042;19.224;2023-08-06T06:55:51;7.80;;;6.70;;
75246;SDS011;63844;50.042;19.224;2023-08-06T06:57:27;7.40;;;6.80;;
75246;SDS011;63844;50.042;19.224;2023-08-06T06:59:02;6.90;;;6.20;;
75246;SDS011;63844;50.042;19.224;2023-08-06T07:00:38;7.40;;;6.70;;
75246;SDS011;63844;50.042;19.224;2023-08-06T07:02:13;7.50;;;6.50;;
75246;SDS011;63844;50.042;19.224;2023-08-06T07:03:49;6.70;;;6.00;;
75246;SDS011;63844;50.042;19.224;2023-08-06T07:05:24;6.70;;;6.10;;
75246;SDS011;63844;50.042;19.224;2023-08-06T07:06:59;7.70;;;6.70;;
75246;SDS011;63844;50.042;19.224;2023-08-06T07:08:35;7.20;;;6.60;;
75246;SDS011;63844;50.042;19.224;2023-08-06T07:10:10;7.30;;;6.60;;
75246;SDS011;63844;50.042;19.224;2023-08-06T07:11:46;7.20;;;6.40;;
75246;SDS011;63844;50.042;19.224;2023-08-06T07:13:21;7.90;;;7.00;;
75246;SDS011;63844;50.042;19.224;2023-08-06T07:14:57;7.60;;;6.30;;
75246;SDS011;63844;50.042;19.224;2023-08-06T07:16:33;7.20;;;6.50;;
75246;SDS011;63844;50.042;19.224;2023-08-06T07:18:09;7.30;;;6.60;;
75246;SDS011;63844;50.042;19.224;2023-08-06T07:21:20;6.60;;;6.00;;
75246;SDS011;63844;50.042;19.224;2023-08-06T07:22:56;7.30;;;6.60;;
75246;SDS011;63844;50.042;19.224;2023-08-06T07:24:31;8.00;;;6.50;;
75246;SDS011;63844;50.042;19.224;2023-08-06T07:26:07;7.50;;;6.80;;
75246;SDS011;63844;50.042;19.224;2023-08-06T07:27:42;6.90;;;6.30;;
75246;SDS011;63844;50.042;19.224;2023-08-06T07:29:18;6.40;;;5.80;;
75246;SDS011;63844;50.042;19.224;2023-08-06T07:30:57;7.30;;;6.60;;
75246;SDS011;63844;50.042;19.224;2023-08-06T07:32:32;7.70;;;6.40;;
75246;SDS011;63844;50.042;19.224;2023-08-06T07:34:08;7.70;;;7.00;;
75246;SDS011;63844;50.042;19.224;2023-08-06T07:35:43;6.70;;;6.10;;
75246;SDS011;63844;50.042;19.224;2023-08-06T07:37:18;7.10;;;6.40;;
75246;SDS011;63844;50.042;19.224;2023-08-06T07:38:54;7.10;;;6.00;;
75246;SDS011;63844;50.042;19.224;2023-08-06T07:40:31;8.30;;;7.50;;
75246;SDS011;63844;50.042;19.224;2023-08-06T07:42:07;7.30;;;6.30;;
75246;SDS011;63844;50.042;19.224;2023-08-06T07:43:42;6.60;;;6.00;;
75246;SDS011;63844;50.042;19.224;2023-08-06T07:45:18;6.90;;;6.20;;
75246;SDS011;63844;50.042;19.224;2023-08-06T07:46:53;6.90;;;6.00;;
75246;SDS011;63844;50.042;19.224;2023-08-06T07:48:29;8.40;;;7.60;;
75246;SDS011;63844;50.042;19.224;2023-08-06T07:50:04;7.20;;;6.20;;
75246;SDS011;63844;50.042;19.224;2023-08-06T07:51:40;8.20;;;6.60;;
75246;SDS011;63844;50.042;19.224;2023-08-06T07:53:16;7.70;;;6.90;;
75246;SDS011;63844;50.042;19.224;2023-08-06T07:54:51;7.00;;;6.40;;
75246;SDS011;63844;50.042;19.224;2023-08-06T07:56:26;7.60;;;6.80;;
75246;SDS011;63844;50.042;19.224;2023-08-06T07:58:01;8.30;;;7.50;;
75246;SDS011;63844;50.042;19.224;2023-08-06T07:59:37;9.50;;;8.70;;
75246;SDS011;63844;50.042;19.224;2023-08-06T08:01:12;8.30;;;7.50;;
75246;SDS011;63844;50.042;19.224;2023-08-06T08:02:48;7.20;;;6.50;;
75246;SDS011;63844;50.042;19.224;2023-08-06T08:04:23;8.30;;;6.90;;
75246;SDS011;63844;50.042;19.224;2023-08-06T08:05:59;7.70;;;7.00;;
75246;SDS011;63844;50.042;19.224;2023-08-06T08:07:34;8.00;;;7.20;;
75246;SDS011;63844;50.042;19.224;2023-08-06T08:09:10;8.00;;;6.80;;
75246;SDS011;63844;50.042;19.224;2023-08-06T08:10:46;7.70;;;7.00;;
75246;SDS011;63844;50.042;19.224;2023-08-06T08:12:21;8.40;;;7.50;;
75246;SDS011;63844;50.042;19.224;2023-08-06T08:13:57;9.50;;;7.40;;
75246;SDS011;63844;50.042;19.224;2023-08-06T08:15:34;7.80;;;7.00;;
75246;SDS011;63844;50.042;19.224;2023-08-06T08:17:09;9.00;;;7.70;;
75246;SDS011;63844;50.042;19.224;2023-08-06T08:18:46;7.40;;;6.70;;
75246;SDS011;63844;50.042;19.224;2023-08-06T08:20:21;7.90;;;6.90;;
75246;SDS011;63844;50.042;19.224;2023-08-06T08:21:56;8.70;;;7.20;;
75246;SDS011;63844;50.042;19.224;2023-08-06T08:25:07;11.00;;;7.40;;
75246;SDS011;63844;50.042;19.224;2023-08-06T08:26:43;9.20;;;7.60;;
75246;SDS011;63844;50.042;19.224;2023-08-06T08:28:18;8.50;;;7.70;;
75246;SDS011;63844;50.042;19.224;2023-08-06T08:29:54;12.80;;;8.10;;
75246;SDS011;63844;50.042;19.224;2023-08-06T08:31:29;9.30;;;7.70;;
75246;SDS011;63844;50.042;19.224;2023-08-06T08:33:05;7.20;;;6.50;;
75246;SDS011;63844;50.042;19.224;2023-08-06T08:34:40;7.90;;;6.90;;
75246;SDS011;63844;50.042;19.224;2023-08-06T08:36:15;7.80;;;6.90;;
75246;SDS011;63844;50.042;19.224;2023-08-06T08:37:51;8.20;;;7.40;;
75246;SDS011;63844;50.042;19.224;2023-08-06T08:39:27;8.10;;;7.40;;
75246;SDS011;63844;50.042;19.224;2023-08-06T08:41:02;9.60;;;7.70;;
75246;SDS011;63844;50.042;19.224;2023-08-06T08:42:37;8.40;;;7.40;;
75246;SDS011;63844;50.042;19.224;2023-08-06T08:44:13;8.30;;;7.10;;
75246;SDS011;63844;50.042;19.224;2023-08-06T08:45:52;9.80;;;8.40;;
75246;SDS011;63844;50.042;19.224;2023-08-06T08:47:30;11.10;;;10.20;;
75246;SDS011;63844;50.042;19.224;2023-08-06T08:49:06;10.00;;;8.50;;
75246;SDS011;63844;50.042;19.224;2023-08-06T08:50:43;8.50;;;7.70;;
75246;SDS011;63844;50.042;19.224;2023-08-06T08:52:21;8.40;;;7.50;;
75246;SDS011;63844;50.042;19.224;2023-08-06T08:53:57;8.10;;;7.30;;
75246;SDS011;63844;50.042;19.224;2023-08-06T08:55:33;8.50;;;7.60;;
75246;SDS011;63844;50.042;19.224;2023-08-06T08:57:09;9.50;;;8.50;;
75246;SDS011;63844;50.042;19.224;2023-08-06T08:58:44;9.20;;;7.50;;
75246;SDS011;63844;50.042;19.224;2023-08-06T09:00:20;9.30;;;7.50;;
75246;SDS011;63844;50.042;19.224;2023-08-06T09:01:55;8.20;;;7.40;;
75246;SDS011;63844;50.042;19.224;2023-08-06T09:03:31;9.10;;;8.20;;
75246;SDS011;63844;50.042;19.224;2023-08-06T09:05:07;9.10;;;8.30;;
75246;SDS011;63844;50.042;19.224;2023-08-06T09:06:46;9.30;;;8.50;;
75246;SDS011;63844;50.042;19.224;2023-08-06T09:08:27;10.90;;;10.00;;
75246;SDS011;63844;50.042;19.224;2023-08-06T09:10:06;8.40;;;7.60;;
75246;SDS011;63844;50.042;19.224;2023-08-06T09:11:45;8.80;;;8.00;;
75246;SDS011;63844;50.042;19.224;2023-08-06T09:13:24;9.50;;;8.40;;
75246;SDS011;63844;50.042;19.224;2023-08-06T09:15:00;8.60;;;7.80;;
75246;SDS011;63844;50.042;19.224;2023-08-06T09:16:38;11.60;;;10.40;;
75246;SDS011;63844;50.042;19.224;2023-08-06T09:18:13;9.50;;;7.70;;
75246;SDS011;63844;50.042;19.224;2023-08-06T09:19:49;10.20;;;7.50;;
75246;SDS011;63844;50.042;19.224;2023-08-06T09:23:06;7.60;;;6.90;;
75246;SDS011;63844;50.042;19.224;2023-08-06T09:24:45;16.60;;;7.30;;
75246;SDS011;63844;50.042;19.224;2023-08-06T09:26:22;7.80;;;6.90;;
75246;SDS011;63844;50.042;19.224;2023-08-06T09:27:57;9.40;;;8.40;;
75246;SDS011;63844;50.042;19.224;2023-08-06T09:29:32;10.00;;;7.40;;
75246;SDS011;63844;50.042;19.224;2023-08-06T09:31:08;9.50;;;7.70;;
75246;SDS011;63844;50.042;19.224;2023-08-06T09:32:46;9.40;;;7.90;;
75246;SDS011;63844;50.042;19.224;2023-08-06T09:34:28;8.70;;;7.90;;
75246;SDS011;63844;50.042;19.224;2023-08-06T09:36:07;9.00;;;7.10;;
75246;SDS011;63844;50.042;19.224;2023-08-06T09:37:44;8.00;;;7.20;;
75246;SDS011;63844;50.042;19.224;2023-08-06T09:39:21;8.00;;;7.10;;
75246;SDS011;63844;50.042;19.224;2023-08-06T09:41:01;7.10;;;6.50;;
75246;SDS011;63844;50.042;19.224;2023-08-06T09:42:36;8.00;;;7.20;;
75246;SDS011;63844;50.042;19.224;2023-08-06T09:44:15;8.10;;;7.30;;
75246;SDS011;63844;50.042;19.224;2023-08-06T09:45:56;8.00;;;7.20;;
75246;SDS011;63844;50.042;19.224;2023-08-06T09:47:31;7.10;;;6.30;;
75246;SDS011;63844;50.042;19.224;2023-08-06T09:49:07;7.80;;;6.60;;
75246;SDS011;63844;50.042;19.224;2023-08-06T09:50:44;7.70;;;6.70;;
75246;SDS011;63844;50.042;19.224;2023-08-06T09:52:22;7.90;;;6.70;;
75246;SDS011;63844;50.042;19.224;2023-08-06T09:53:58;6.70;;;6.00;;